Time;durP1;ratioP1;P1;durP2;ratioP2;P2;SDS_P1;SDS_P2;PMS_P1;PMS_P2;Temp;Humidity;BMP_temperature;BMP_pressure;BME280_temperature;BME280_humidity;BME280_pressure;Samples;Min_cycle;Max_cycle;Signal;HPM_P1;HPM_P2
2021/05/10 00:02:04;;;;;;;2.45;0.80;;;18.40;95.90;;;;;;5099626;28;20436;-76
2021/05/10 00:04:34;;;;;;;3.15;0.93;;;18.50;96.00;;;;;;5093888;28;20481;-76
2021/05/10 00:07:04;;;;;;;6.90;1.10;;;18.50;95.80;;;;;;5102920;28;20040;-76
2021/05/10 00:09:34;;;;;;;3.20;1.25;;;18.50;95.90;;;;;;5097112;28;20428;-76
2021/05/10 00:12:04;;;;;;;2.90;1.10;;;18.50;96.00;;;;;;5100647;28;20117;-76
2021/05/10 00:15:07;;;;;;;2.92;1.00;;;18.40;96.10;;;;;;5077967;28;20047;-76
2021/05/10 00:17:34;;;;;;;3.58;1.10;;;18.30;96.30;;;;;;5097044;28;20149;-76
2021/05/10 00:20:04;;;;;;;3.08;1.25;;;18.30;96.40;;;;;;5101118;28;20091;-76
2021/05/10 00:22:40;;;;;;;2.53;1.00;;;18.30;96.30;;;;;;5100434;27;20039;-76
2021/05/10 00:25:10;;;;;;;4.35;1.10;;;18.10;96.70;;;;;;5103265;27;20126;-76
2021/05/10 00:27:39;;;;;;;2.85;1.20;;;18.20;96.70;;;;;;5100122;27;20040;-76
2021/05/10 00:30:11;;;;;;;3.03;1.20;;;18.10;96.70;;;;;;5105505;27;20116;-76
2021/05/10 00:32:40;;;;;;;1.65;0.73;;;17.90;96.70;;;;;;5102124;27;20122;-76
2021/05/10 00:35:12;;;;;;;2.53;1.10;;;17.80;96.70;;;;;;5099531;28;20043;-77
2021/05/10 00:37:44;;;;;;;1.92;0.90;;;17.80;96.70;;;;;;5082373;28;20097;-77
2021/05/10 00:40:18;;;;;;;1.55;1.00;;;17.90;96.70;;;;;;5102258;28;20048;-76
2021/05/10 00:42:54;;;;;;;1.67;0.90;;;17.90;96.70;;;;;;5099915;27;20167;-78
2021/05/10 00:45:31;;;;;;;2.55;0.88;;;17.80;96.70;;;;;;5102874;28;20298;-78
2021/05/10 00:48:07;;;;;;;3.47;1.02;;;17.80;96.70;;;;;;5085735;28;20031;-78
2021/05/10 00:50:36;;;;;;;2.65;0.90;;;17.90;96.70;;;;;;5105092;27;20047;-78
2021/05/10 00:53:07;;;;;;;2.53;1.00;;;17.90;96.70;;;;;;5098440;27;20052;-77
2021/05/10 00:55:36;;;;;;;2.70;1.00;;;17.70;96.70;;;;;;5105377;27;20289;-78
2021/05/10 00:58:05;;;;;;;3.65;1.30;;;17.80;96.70;;;;;;5097025;27;20398;-78
2021/05/10 01:00:37;;;;;;;4.38;1.05;;;17.60;96.70;;;;;;5100675;27;20036;-77
2021/05/10 01:03:05;;;;;;;2.67;1.00;;;17.70;96.70;;;;;;5084663;28;20067;-77
2021/05/10 01:05:36;;;;;;;3.15;1.20;;;17.80;96.70;;;;;;5096631;28;20064;-77
2021/05/10 01:08:06;;;;;;;3.20;1.20;;;17.70;96.70;;;;;;5101477;28;20038;-77
2021/05/10 01:10:35;;;;;;;4.55;1.13;;;17.70;96.70;;;;;;5098120;27;20036;-77
2021/05/10 01:13:05;;;;;;;2.35;0.90;;;17.50;96.70;;;;;;5101861;27;20039;-77
2021/05/10 01:15:35;;;;;;;3.28;1.00;;;17.50;96.70;;;;;;5102068;27;20048;-77
2021/05/10 01:18:05;;;;;;;4.38;1.20;;;17.50;96.70;;;;;;5097629;27;20105;-77
2021/05/10 01:20:36;;;;;;;2.83;1.00;;;17.40;96.70;;;;;;5105789;27;20122;-77
2021/05/10 01:23:06;;;;;;;3.88;0.90;;;17.40;96.70;;;;;;5101322;27;20044;-77
2021/05/10 01:25:36;;;;;;;2.25;1.20;;;17.40;96.70;;;;;;5097319;28;20044;-77
2021/05/10 01:28:06;;;;;;;2.55;1.15;;;17.30;96.70;;;;;;5096868;27;20058;-77
2021/05/10 01:30:44;;;;;;;3.30;1.00;;;17.40;96.70;;;;;;5079709;28;20438;-77
2021/05/10 01:33:14;;;;;;;2.75;1.30;;;17.30;96.70;;;;;;5101178;27;20048;-77
2021/05/10 01:35:44;;;;;;;2.90;0.98;;;17.20;96.70;;;;;;5095426;28;20078;-76
2021/05/10 01:38:15;;;;;;;2.42;1.20;;;17.00;96.70;;;;;;5093475;28;20508;-77
2021/05/10 01:40:48;;;;;;;1.73;1.10;;;17.10;96.70;;;;;;5098390;28;20130;-77
2021/05/10 01:43:18;;;;;;;3.42;1.05;;;17.10;96.70;;;;;;5092434;27;20042;-77
2021/05/10 01:45:48;;;;;;;3.25;1.00;;;17.00;96.70;;;;;;5100788;27;20142;-77
2021/05/10 01:48:24;;;;;;;3.50;1.10;;;17.00;96.70;;;;;;5084383;28;20050;-77
2021/05/10 01:50:53;;;;;;;3.83;1.20;;;17.10;96.70;;;;;;5098388;27;20251;-77
2021/05/10 01:53:23;;;;;;;4.18;1.27;;;17.10;96.70;;;;;;5095963;28;20048;-77
2021/05/10 01:55:51;;;;;;;2.85;1.10;;;16.90;96.70;;;;;;5100832;27;20040;-77
2021/05/10 01:58:20;;;;;;;1.83;0.85;;;16.80;96.70;;;;;;5101133;27;20509;-76
2021/05/10 02:00:49;;;;;;;3.47;1.20;;;16.80;96.70;;;;;;5096029;28;20032;-77
2021/05/10 02:03:20;;;;;;;4.10;1.38;;;16.80;96.70;;;;;;5099935;28;20924;-77
2021/05/10 02:05:51;;;;;;;3.25;1.20;;;16.60;96.70;;;;;;5095622;27;20042;-77
2021/05/10 02:08:21;;;;;;;2.47;1.15;;;16.50;96.70;;;;;;5097539;27;20039;-77
2021/05/10 02:10:52;;;;;;;4.22;1.20;;;16.50;96.70;;;;;;5116656;27;20051;-77
2021/05/10 02:13:23;;;;;;;1.80;1.02;;;16.60;96.70;;;;;;5100684;27;20056;-77
2021/05/10 02:15:54;;;;;;;3.78;1.40;;;16.80;96.70;;;;;;5099960;28;20058;-77
2021/05/10 02:18:26;;;;;;;3.80;1.42;;;16.70;96.70;;;;;;5095362;28;20048;-77
2021/05/10 02:20:55;;;;;;;3.28;1.27;;;16.70;96.70;;;;;;5095749;28;20339;-77
2021/05/10 02:23:26;;;;;;;2.33;1.30;;;16.60;96.70;;;;;;5079954;27;20048;-77
2021/05/10 02:25:59;;;;;;;2.88;1.00;;;16.50;96.70;;;;;;5099588;28;20044;-77
2021/05/10 02:28:29;;;;;;;3.47;1.48;;;16.40;96.70;;;;;;5095608;27;20055;-77
2021/05/10 02:31:00;;;;;;;5.78;1.27;;;16.30;96.70;;;;;;5106979;27;20048;-77
2021/05/10 02:33:32;;;;;;;3.35;1.35;;;16.40;96.70;;;;;;5082990;28;20040;-77
2021/05/10 02:36:02;;;;;;;3.10;1.63;;;16.50;96.70;;;;;;5097552;28;20044;-77
2021/05/10 02:38:30;;;;;;;3.65;1.05;;;16.60;96.70;;;;;;5095689;28;20155;-77
2021/05/10 02:40:59;;;;;;;1.58;1.10;;;16.70;96.70;;;;;;5104072;27;20063;-77
2021/05/10 02:43:33;;;;;;;2.90;1.13;;;16.70;96.70;;;;;;5073132;28;20048;-77
2021/05/10 02:46:01;;;;;;;2.47;0.95;;;16.60;96.70;;;;;;5055222;28;20696;-77
2021/05/10 02:48:30;;;;;;;2.70;1.35;;;16.40;96.70;;;;;;5049369;28;20055;-77
2021/05/10 02:51:48;;;;;;;2.42;1.08;;;16.30;96.70;;;;;;5054756;28;20135;-77
2021/05/10 02:54:16;;;;;;;1.48;0.80;;;16.30;96.70;;;;;;5074662;28;20048;-77
2021/05/10 02:56:44;;;;;;;1.42;0.80;;;16.40;96.70;;;;;;5051072;28;20048;-77
2021/05/10 02:59:12;;;;;;;2.95;1.00;;;16.30;96.70;;;;;;5052862;28;20041;-76
2021/05/10 03:01:40;;;;;;;1.90;1.10;;;16.30;96.70;;;;;;5052853;28;20159;-77
2021/05/10 03:04:08;;;;;;;2.20;1.20;;;16.40;96.70;;;;;;5049588;28;20048;-77
2021/05/10 03:06:36;;;;;;;2.20;1.25;;;16.40;96.70;;;;;;5050918;28;20041;-76
2021/05/10 03:09:04;;;;;;;3.33;1.35;;;16.50;96.70;;;;;;5067405;28;20086;-76
2021/05/10 03:11:32;;;;;;;3.00;1.00;;;16.40;96.70;;;;;;5052322;28;20040;-76
2021/05/10 03:14:00;;;;;;;3.70;1.20;;;16.40;96.70;;;;;;5068865;28;20141;-77
2021/05/10 03:16:28;;;;;;;3.20;1.40;;;16.40;96.70;;;;;;5053565;28;20424;-77
2021/05/10 03:18:56;;;;;;;2.63;1.02;;;16.00;96.70;;;;;;5035874;28;20095;-77
2021/05/10 03:21:23;;;;;;;2.80;1.10;;;15.90;96.70;;;;;;5070401;28;20048;-76
2021/05/10 03:23:51;;;;;;;3.38;1.23;;;15.80;96.70;;;;;;5073611;28;20040;-77
2021/05/10 03:26:19;;;;;;;3.03;0.90;;;15.80;96.70;;;;;;5061692;28;20047;-77
2021/05/10 03:28:46;;;;;;;2.35;0.90;;;16.10;96.70;;;;;;5078976;28;20040;-77
2021/05/10 03:31:15;;;;;;;3.30;1.40;;;16.10;96.70;;;;;;5074905;28;20133;-77
2021/05/10 03:33:43;;;;;;;3.22;1.00;;;16.30;96.70;;;;;;5080223;28;20884;-76
2021/05/10 03:36:11;;;;;;;3.80;1.10;;;16.20;96.70;;;;;;5061442;28;20044;-77
2021/05/10 03:38:38;;;;;;;4.50;1.40;;;16.20;96.70;;;;;;5079088;28;20051;-77
2021/05/10 03:41:06;;;;;;;2.38;1.05;;;16.30;96.70;;;;;;5077214;28;20405;-77
2021/05/10 03:43:34;;;;;;;4.25;1.55;;;16.20;96.70;;;;;;5077771;28;20036;-77
2021/05/10 03:46:02;;;;;;;4.35;1.20;;;16.10;96.70;;;;;;5076084;28;20214;-77
2021/05/10 03:48:30;;;;;;;2.40;1.20;;;16.20;96.70;;;;;;5079961;28;20040;-77
2021/05/10 03:50:58;;;;;;;3.47;1.02;;;16.10;96.70;;;;;;5079939;28;20109;-75
2021/05/10 03:53:28;;;;;;;1.98;1.20;;;16.10;96.70;;;;;;5104983;27;20067;-77
2021/05/10 03:55:56;;;;;;;7.03;1.40;;;16.00;96.70;;;;;;5098073;28;20588;-77
2021/05/10 03:58:24;;;;;;;2.58;1.17;;;16.00;96.70;;;;;;5103060;27;20457;-76
2021/05/10 04:00:52;;;;;;;2.50;1.15;;;15.90;96.70;;;;;;5111891;27;20047;-77
2021/05/10 04:03:22;;;;;;;2.92;1.20;;;16.00;96.70;;;;;;5100240;27;20040;-77
2021/05/10 04:06:08;;;;;;;2.67;0.95;;;16.10;96.70;;;;;;5084501;28;20066;-77
2021/05/10 04:09:01;;;;;;;1.95;1.05;;;16.00;96.70;;;;;;5102241;27;20044;-77
2021/05/10 04:14:17;;;;;;;2.42;0.98;;;15.50;96.70;;;;;;5070110;28;20048;-77
2021/05/10 04:16:45;;;;;;;2.67;1.45;;;15.50;96.70;;;;;;5105622;27;20050;-76
2021/05/10 04:19:13;;;;;;;3.95;1.23;;;15.70;96.70;;;;;;5103236;27;20035;-77
2021/05/10 04:21:43;;;;;;;2.22;1.10;;;15.70;96.70;;;;;;5099354;27;20172;-77
2021/05/10 04:24:11;;;;;;;2.97;1.42;;;15.80;96.70;;;;;;5098533;27;20040;-77
2021/05/10 04:26:39;;;;;;;1.70;1.08;;;15.90;96.70;;;;;;5107280;27;20071;-77
2021/05/10 04:29:06;;;;;;;2.85;1.33;;;15.90;96.70;;;;;;5099229;27;20093;-77
2021/05/10 04:31:38;;;;;;;3.50;1.42;;;15.90;96.70;;;;;;5103155;27;20365;-77
2021/05/10 04:34:06;;;;;;;3.22;1.40;;;16.10;96.70;;;;;;5103093;27;20028;-77
2021/05/10 04:36:33;;;;;;;2.42;1.35;;;16.00;96.70;;;;;;5101388;27;20035;-76
2021/05/10 04:39:03;;;;;;;4.85;2.30;;;16.10;96.70;;;;;;5098979;28;20047;-76
2021/05/10 04:41:30;;;;;;;12.23;5.85;;;16.20;96.70;;;;;;5104017;27;20047;-76
2021/05/10 04:44:01;;;;;;;30.50;14.85;;;16.10;96.70;;;;;;5102489;27;20104;-77
2021/05/10 04:46:29;;;;;;;34.38;17.63;;;16.00;96.70;;;;;;5103502;27;20047;-77
2021/05/10 04:48:56;;;;;;;40.03;21.33;;;16.10;96.70;;;;;;5102117;27;20046;-76
2021/05/10 04:51:24;;;;;;;38.53;17.60;;;16.10;96.70;;;;;;5107598;27;20057;-75
2021/05/10 04:53:52;;;;;;;33.83;16.35;;;16.10;96.70;;;;;;5106574;27;20047;-76
2021/05/10 04:56:20;;;;;;;32.45;16.45;;;16.20;96.70;;;;;;5100305;27;20136;-76
2021/05/10 04:58:48;;;;;;;33.33;16.35;;;16.50;96.70;;;;;;5098413;28;20085;-77
2021/05/10 05:01:16;;;;;;;31.13;14.52;;;16.40;96.70;;;;;;5097459;28;20511;-76
2021/05/10 05:03:44;;;;;;;24.40;13.27;;;16.60;96.70;;;;;;5103146;27;20035;-76
2021/05/10 05:06:11;;;;;;;16.13;7.15;;;16.70;96.70;;;;;;5102356;27;20043;-76
2021/05/10 05:08:39;;;;;;;7.15;4.10;;;16.80;96.70;;;;;;5101198;28;20104;-76
2021/05/10 05:11:06;;;;;;;5.80;2.30;;;16.60;96.70;;;;;;5104611;27;20032;-76
2021/05/10 05:13:35;;;;;;;6.70;2.97;;;16.70;96.70;;;;;;5099829;28;20077;-76
2021/05/10 05:16:02;;;;;;;4.93;1.85;;;16.70;96.70;;;;;;5100130;28;20587;-77
2021/05/10 05:18:30;;;;;;;7.47;2.15;;;16.70;96.70;;;;;;5101954;27;20052;-77
2021/05/10 05:20:58;;;;;;;7.03;1.70;;;16.50;96.70;;;;;;5098782;27;20085;-77
2021/05/10 05:23:28;;;;;;;3.83;1.88;;;16.60;96.70;;;;;;5117953;27;20134;-77
2021/05/10 05:25:57;;;;;;;6.03;1.90;;;16.70;96.70;;;;;;5096035;28;20048;-77
2021/05/10 05:28:26;;;;;;;2.97;1.48;;;16.90;96.70;;;;;;5102670;27;20110;-76
2021/05/10 05:30:56;;;;;;;4.28;1.88;;;17.10;96.70;;;;;;5098205;27;20087;-77
2021/05/10 05:33:24;;;;;;;4.47;1.50;;;16.80;96.70;;;;;;5100862;27;20041;-76
2021/05/10 05:35:52;;;;;;;3.40;1.40;;;16.70;96.70;;;;;;5082153;28;20040;-77
2021/05/10 05:38:20;;;;;;;5.25;1.65;;;16.90;96.70;;;;;;5098581;28;20048;-77
2021/05/10 05:40:48;;;;;;;5.32;2.13;;;16.90;96.70;;;;;;5084388;28;20043;-76
2021/05/10 05:43:15;;;;;;;5.78;2.13;;;16.70;96.70;;;;;;5100357;27;20051;-77
2021/05/10 05:45:44;;;;;;;4.68;2.17;;;16.80;96.70;;;;;;5100976;27;20563;-77
2021/05/10 05:48:14;;;;;;;9.02;3.65;;;16.70;96.70;;;;;;5101930;27;20031;-77
2021/05/10 05:50:41;;;;;;;11.02;3.50;;;16.90;96.70;;;;;;5080254;28;20127;-77
2021/05/10 05:53:10;;;;;;;11.18;2.92;;;17.00;96.70;;;;;;5106360;27;20074;-76
2021/05/10 05:55:39;;;;;;;7.68;2.65;;;17.20;96.70;;;;;;5096013;28;20500;-77
2021/05/10 05:58:07;;;;;;;5.07;2.28;;;17.30;96.70;;;;;;5096510;28;20051;-77
2021/05/10 06:00:34;;;;;;;10.50;4.30;;;17.40;96.70;;;;;;5080913;27;20047;-77
2021/05/10 06:03:02;;;;;;;12.32;6.22;;;17.40;96.70;;;;;;5098746;28;20478;-77
2021/05/10 06:05:31;;;;;;;13.35;8.73;;;17.40;96.70;;;;;;5081897;28;20046;-77
2021/05/10 06:07:58;;;;;;;11.50;8.02;;;17.50;96.70;;;;;;5105725;27;20146;-77
2021/05/10 06:10:27;;;;;;;9.98;7.07;;;17.60;96.70;;;;;;5087339;28;20047;-77
2021/05/10 06:12:56;;;;;;;11.82;5.80;;;17.60;96.70;;;;;;5097374;27;20043;-77
2021/05/10 06:15:24;;;;;;;7.75;5.35;;;17.80;96.70;;;;;;5097776;28;20416;-77
2021/05/10 06:17:51;;;;;;;9.73;4.63;;;17.90;96.70;;;;;;5099043;28;20096;-77
2021/05/10 06:20:19;;;;;;;6.20;4.07;;;18.00;96.70;;;;;;5102100;27;20040;-77
2021/05/10 06:22:50;;;;;;;5.07;2.85;;;18.10;96.70;;;;;;5095704;28;20036;-77
2021/05/10 06:25:18;;;;;;;6.00;3.42;;;18.20;96.70;;;;;;5098836;27;20058;-76
2021/05/10 06:27:46;;;;;;;7.80;2.92;;;18.20;96.70;;;;;;5097589;28;20040;-77
2021/05/10 06:30:15;;;;;;;8.57;2.95;;;18.10;96.70;;;;;;5083507;28;20055;-77
2021/05/10 06:32:43;;;;;;;6.85;3.03;;;18.20;96.70;;;;;;5095018;27;20130;-77
2021/05/10 06:35:12;;;;;;;5.93;3.20;;;18.40;96.70;;;;;;5097995;28;20047;-77
2021/05/10 06:37:39;;;;;;;6.78;3.60;;;18.40;96.70;;;;;;5098561;27;20442;-77
2021/05/10 06:40:09;;;;;;;5.40;3.30;;;18.30;96.70;;;;;;5101332;27;20142;-77
2021/05/10 06:42:37;;;;;;;5.05;3.22;;;18.20;96.70;;;;;;5097826;28;20522;-77
2021/05/10 06:45:07;;;;;;;7.43;3.85;;;18.20;96.70;;;;;;5102017;27;20031;-77
2021/05/10 06:47:37;;;;;;;5.28;3.10;;;18.20;96.70;;;;;;5097279;28;20038;-77
2021/05/10 06:50:06;;;;;;;8.20;3.47;;;18.20;96.70;;;;;;5099658;27;20565;-77
2021/05/10 06:52:34;;;;;;;5.13;3.42;;;18.30;96.70;;;;;;5096025;28;20055;-77
2021/05/10 06:55:02;;;;;;;6.43;3.20;;;18.50;96.70;;;;;;5100186;28;20035;-76
2021/05/10 06:57:31;;;;;;;5.72;3.58;;;18.70;96.70;;;;;;5093230;28;20039;-77
2021/05/10 06:59:59;;;;;;;5.47;3.13;;;18.80;96.70;;;;;;5096827;28;20139;-77
2021/05/10 07:02:27;;;;;;;6.30;2.75;;;18.90;96.70;;;;;;5097027;27;20031;-77
2021/05/10 07:04:56;;;;;;;3.90;2.70;;;19.00;96.70;;;;;;5099408;28;20151;-77
2021/05/10 07:07:24;;;;;;;9.40;2.83;;;19.20;96.70;;;;;;5096404;28;20572;-77
2021/05/10 07:09:53;;;;;;;6.13;2.55;;;19.40;96.70;;;;;;5101251;28;20626;-77
2021/05/10 07:12:21;;;;;;;5.60;2.97;;;19.40;96.70;;;;;;5096784;28;20040;-77
2021/05/10 07:14:50;;;;;;;6.90;2.50;;;19.50;96.70;;;;;;5082747;28;20047;-77
2021/05/10 07:17:17;;;;;;;4.05;2.42;;;19.50;96.70;;;;;;5096598;28;20416;-77
2021/05/10 07:19:45;;;;;;;8.77;3.80;;;19.60;96.70;;;;;;5100049;28;20115;-77
2021/05/10 07:22:13;;;;;;;7.13;2.63;;;19.80;96.70;;;;;;5100456;28;20568;-77
2021/05/10 07:24:41;;;;;;;5.80;2.60;;;19.80;96.70;;;;;;5087885;28;20043;-77
2021/05/10 07:27:08;;;;;;;4.43;2.30;;;19.90;96.70;;;;;;5099680;27;20096;-77
2021/05/10 07:29:37;;;;;;;4.38;2.42;;;19.90;96.70;;;;;;5102973;28;20046;-76
2021/05/10 07:32:07;;;;;;;3.28;2.22;;;19.90;96.70;;;;;;5109751;27;20065;-77
2021/05/10 07:34:39;;;;;;;4.05;2.40;;;19.90;96.70;;;;;;5087449;28;20053;-78
2021/05/10 07:37:07;;;;;;;8.93;2.50;;;20.00;96.70;;;;;;5100048;27;20039;-76
2021/05/10 07:39:35;;;;;;;5.60;2.70;;;20.00;96.70;;;;;;5097664;27;20395;-76
2021/05/10 07:42:03;;;;;;;2.53;1.85;;;20.00;96.70;;;;;;5104508;27;20120;-77
2021/05/10 07:44:31;;;;;;;6.55;2.15;;;20.20;96.70;;;;;;5103247;27;20047;-77
2021/05/10 07:46:59;;;;;;;4.75;1.92;;;20.20;96.70;;;;;;5103739;27;20113;-77
2021/05/10 07:49:28;;;;;;;3.85;1.80;;;20.30;96.70;;;;;;5097332;28;20040;-76
2021/05/10 07:51:56;;;;;;;2.97;2.00;;;20.30;96.70;;;;;;5100712;27;20042;-76
2021/05/10 07:54:23;;;;;;;6.93;2.15;;;20.40;96.70;;;;;;5100851;28;20074;-76
2021/05/10 07:56:51;;;;;;;3.53;2.00;;;20.40;96.70;;;;;;5104861;27;20048;-76
2021/05/10 07:59:19;;;;;;;2.80;1.75;;;20.40;96.70;;;;;;5097062;28;20396;-76
2021/05/10 08:01:48;;;;;;;4.85;2.30;;;20.40;96.70;;;;;;5100851;27;20045;-76
2021/05/10 08:04:16;;;;;;;5.35;1.88;;;20.40;96.70;;;;;;5099502;28;20563;-77
2021/05/10 08:06:45;;;;;;;2.70;1.65;;;20.50;96.70;;;;;;5082730;28;20195;-77
2021/05/10 08:09:12;;;;;;;4.10;2.05;;;20.60;96.70;;;;;;5077674;28;20451;-77
2021/05/10 08:11:40;;;;;;;2.50;1.77;;;20.70;96.70;;;;;;5103942;27;20051;-77
2021/05/10 08:14:09;;;;;;;4.43;2.08;;;20.80;96.70;;;;;;5082206;28;20039;-79
2021/05/10 08:16:36;;;;;;;3.63;1.55;;;20.90;96.70;;;;;;5099656;27;20040;-76
2021/05/10 08:19:05;;;;;;;5.05;1.98;;;21.00;96.70;;;;;;5083027;28;20043;-78
2021/05/10 08:21:33;;;;;;;3.97;2.28;;;21.10;96.70;;;;;;5108782;27;20117;-78
2021/05/10 08:24:02;;;;;;;5.70;1.60;;;21.20;96.70;;;;;;5099563;27;20854;-78
2021/05/10 08:26:30;;;;;;;2.65;1.85;;;21.20;96.30;;;;;;5102161;27;20047;-77
2021/05/10 08:28:58;;;;;;;3.58;1.80;;;21.30;96.30;;;;;;5081844;28;20569;-77
2021/05/10 08:31:25;;;;;;;3.85;2.03;;;21.50;96.30;;;;;;5102705;27;20436;-78
2021/05/10 08:33:53;;;;;;;4.18;1.77;;;21.60;96.10;;;;;;5081284;28;20585;-78
2021/05/10 08:36:21;;;;;;;5.68;1.80;;;21.60;95.40;;;;;;5102167;27;20115;-78
2021/05/10 08:38:51;;;;;;;5.40;1.80;;;21.70;95.20;;;;;;5080773;27;20047;-77
2021/05/10 08:41:20;;;;;;;3.65;1.20;;;21.70;94.60;;;;;;5100868;28;20054;-76
2021/05/10 08:43:48;;;;;;;4.97;1.50;;;21.80;94.10;;;;;;5099518;28;20507;-75
2021/05/10 08:46:16;;;;;;;3.13;1.50;;;21.80;93.10;;;;;;5101512;28;20082;-75
2021/05/10 08:48:43;;;;;;;4.35;1.42;;;21.90;92.80;;;;;;5097587;28;20047;-74
2021/05/10 08:51:12;;;;;;;3.55;1.70;;;22.00;92.80;;;;;;5085571;27;20082;-74
2021/05/10 08:53:41;;;;;;;3.72;1.73;;;22.00;92.30;;;;;;5081169;28;20142;-74
2021/05/10 08:56:09;;;;;;;3.20;1.60;;;22.10;92.70;;;;;;5103944;27;20080;-74
2021/05/10 08:58:40;;;;;;;1.58;1.38;;;22.20;92.30;;;;;;5099491;28;20991;-75
2021/05/10 09:01:09;;;;;;;2.85;1.30;;;22.30;91.90;;;;;;5098355;28;20517;-74
2021/05/10 09:03:44;;;;;;;3.30;1.52;;;22.40;91.90;;;;;;5099355;27;20117;-74
2021/05/10 09:06:14;;;;;;;2.00;1.40;;;22.50;91.20;;;;;;5098844;27;20113;-74
2021/05/10 09:08:43;;;;;;;3.30;1.63;;;22.40;90.80;;;;;;5099403;28;20047;-74
2021/05/10 09:11:12;;;;;;;6.40;1.58;;;22.50;91.00;;;;;;5098827;27;20089;-75
2021/05/10 09:13:42;;;;;;;5.43;1.77;;;22.60;91.60;;;;;;5084480;28;20047;-74
2021/05/10 09:16:12;;;;;;;4.05;1.38;;;22.70;91.50;;;;;;5083266;27;20092;-74
2021/05/10 09:18:51;;;;;;;4.97;1.35;;;22.70;90.60;;;;;;5100546;27;20040;-75
2021/05/10 09:21:21;;;;;;;3.15;1.38;;;22.80;88.20;;;;;;5097264;27;20047;-74
2021/05/10 09:24:20;;;;;;;4.10;1.67;;;22.90;88.10;;;;;;5097261;27;20574;-75
2021/05/10 09:27:23;;;;;;;3.58;1.45;;;23.00;88.50;;;;;;5094721;27;20042;-77
2021/05/10 09:30:08;;;;;;;1.73;1.30;;;23.00;89.00;;;;;;5098753;28;20840;-75
2021/05/10 09:32:36;;;;;;;1.92;1.42;;;23.00;87.80;;;;;;5096557;28;20058;-75
2021/05/10 09:35:20;;;;;;;6.40;1.80;;;23.10;89.00;;;;;;5100374;28;20044;-75
2021/05/10 09:38:03;;;;;;;4.20;1.55;;;23.20;88.50;;;;;;5097107;27;20274;-76
2021/05/10 09:40:41;;;;;;;2.47;1.50;;;23.20;88.00;;;;;;5096681;28;20192;-75
2021/05/10 09:43:09;;;;;;;3.38;1.75;;;23.30;88.10;;;;;;5099467;28;20039;-75
2021/05/10 09:45:45;;;;;;;2.30;1.40;;;23.40;88.30;;;;;;5095079;27;20047;-76
2021/05/10 09:48:18;;;;;;;2.60;1.30;;;23.50;87.90;;;;;;5077046;28;20036;-76
2021/05/10 09:50:49;;;;;;;1.27;1.00;;;23.50;86.50;;;;;;5106581;27;20751;-76
2021/05/10 09:53:29;;;;;;;2.72;1.20;;;23.60;86.20;;;;;;5103477;27;20117;-77
2021/05/10 09:55:58;;;;;;;2.47;1.17;;;23.80;85.70;;;;;;5091849;28;20039;-77
2021/05/10 09:58:37;;;;;;;3.53;1.40;;;23.80;86.30;;;;;;5078976;28;20052;-77
2021/05/10 10:01:07;;;;;;;2.75;1.23;;;23.90;85.30;;;;;;5113598;27;20043;-77
2021/05/10 10:03:39;;;;;;;2.30;1.13;;;24.00;84.70;;;;;;5094765;28;20031;-76
2021/05/10 10:06:13;;;;;;;5.10;1.50;;;24.20;83.70;;;;;;5090683;28;20519;-77
2021/05/10 10:08:42;;;;;;;2.17;1.10;;;24.30;83.70;;;;;;5098379;28;20058;-76
2021/05/10 10:11:13;;;;;;;3.15;1.50;;;24.30;83.70;;;;;;5100153;27;20587;-76
2021/05/10 10:13:43;;;;;;;4.03;2.05;;;24.30;83.80;;;;;;5097306;28;20043;-76
2021/05/10 10:16:17;;;;;;;2.17;1.27;;;24.30;84.20;;;;;;5095082;28;20047;-77
2021/05/10 10:18:45;;;;;;;2.42;1.10;;;24.40;83.10;;;;;;5088832;28;20039;-78
2021/05/10 10:21:15;;;;;;;2.33;1.27;;;24.60;82.70;;;;;;5077867;28;20040;-77
2021/05/10 10:23:47;;;;;;;3.08;1.00;;;24.80;83.20;;;;;;5093082;28;20489;-77
2021/05/10 10:26:37;;;;;;;2.53;1.20;;;24.90;81.50;;;;;;5100123;27;20509;-77
2021/05/10 10:29:07;;;;;;;3.75;1.30;;;25.00;83.00;;;;;;5096131;27;20044;-77
2021/05/10 10:31:39;;;;;;;3.42;1.30;;;25.10;83.80;;;;;;5098373;28;20039;-77
2021/05/10 10:34:28;;;;;;;6.93;1.20;;;25.20;83.20;;;;;;5095360;27;20036;-79
2021/05/10 10:37:00;;;;;;;2.17;1.15;;;25.20;84.00;;;;;;5100797;27;20043;-78
2021/05/10 10:39:30;;;;;;;3.22;1.20;;;25.30;81.90;;;;;;5093436;28;20440;-77
2021/05/10 10:42:03;;;;;;;4.22;1.45;;;25.40;82.90;;;;;;5099042;27;20043;-77
2021/05/10 10:44:34;;;;;;;2.20;1.40;;;25.60;82.90;;;;;;5098407;28;20050;-78
2021/05/10 10:47:04;;;;;;;2.00;1.35;;;25.70;82.90;;;;;;5101521;27;20141;-77
2021/05/10 10:49:33;;;;;;;2.55;1.33;;;25.80;83.10;;;;;;5099859;28;20140;-78
2021/05/10 10:52:03;;;;;;;4.32;1.60;;;26.00;82.20;;;;;;5097193;28;20096;-78
2021/05/10 10:54:31;;;;;;;4.53;1.80;;;26.00;82.00;;;;;;5097404;28;20072;-77
2021/05/10 10:57:00;;;;;;;2.75;1.50;;;26.00;81.30;;;;;;5097784;27;20054;-77
2021/05/10 10:59:31;;;;;;;1.95;1.50;;;25.90;81.40;;;;;;5097254;28;20036;-77
2021/05/10 11:02:19;;;;;;;2.72;1.40;;;26.00;82.20;;;;;;5096631;28;20500;-78
2021/05/10 11:05:07;;;;;;;2.20;1.40;;;26.10;81.40;;;;;;5100995;28;20043;-78
2021/05/10 11:07:49;;;;;;;2.22;1.10;;;26.40;81.10;;;;;;5091128;28;20439;-79
2021/05/10 11:10:48;;;;;;;4.97;1.50;;;26.40;80.70;;;;;;5099004;28;20501;-77
2021/05/10 11:13:38;;;;;;;2.15;1.25;;;26.50;80.40;;;;;;5091412;28;20050;-77
2021/05/10 11:16:10;;;;;;;2.17;1.25;;;26.50;81.20;;;;;;5096183;28;20042;-75
2021/05/10 11:18:54;;;;;;;2.83;1.30;;;26.60;80.50;;;;;;5093324;28;20233;-75
2021/05/10 11:21:41;;;;;;;3.38;1.20;;;26.60;81.20;;;;;;5094104;28;20438;-76
2021/05/10 11:24:13;;;;;;;3.95;1.25;;;26.50;81.20;;;;;;5096931;28;20062;-75
2021/05/10 11:26:44;;;;;;;2.55;1.05;;;26.80;79.70;;;;;;5095422;28;20126;-76
2021/05/10 11:29:40;;;;;;;3.92;1.23;;;26.90;80.50;;;;;;5102640;28;20122;-75
2021/05/10 11:32:32;;;;;;;3.20;1.42;;;27.00;79.80;;;;;;5078556;28;20067;-76
2021/05/10 11:35:25;;;;;;;2.38;1.70;;;27.20;79.50;;;;;;5079798;28;20558;-76
2021/05/10 11:38:05;;;;;;;2.42;1.15;;;27.10;79.80;;;;;;5095689;28;20120;-76
2021/05/10 11:40:32;;;;;;;1.95;1.15;;;27.10;78.50;;;;;;5080222;28;20067;-76
2021/05/10 11:43:19;;;;;;;5.03;1.60;;;27.10;79.30;;;;;;5098166;28;20500;-76
2021/05/10 11:45:47;;;;;;;2.60;1.50;;;27.10;78.30;;;;;;5091713;28;20036;-77
2021/05/10 11:48:15;;;;;;;1.73;0.98;;;26.90;77.90;;;;;;5082430;28;20514;-76
2021/05/10 11:50:46;;;;;;;2.78;1.08;;;26.80;78.90;;;;;;5099022;28;20089;-76
2021/05/10 11:53:16;;;;;;;5.20;1.13;;;27.20;79.10;;;;;;5094189;28;20057;-76
2021/05/10 11:55:59;;;;;;;1.70;1.13;;;27.40;78.20;;;;;;5095745;28;20046;-77
2021/05/10 12:01:40;;;;;;;3.10;1.00;;;27.60;78.00;;;;;;5028888;28;20048;-77
2021/05/10 12:04:19;;;;;;;3.97;1.02;;;27.80;77.30;;;;;;5029646;28;20051;-78
2021/05/10 12:06:49;;;;;;;2.90;1.00;;;27.80;77.60;;;;;;5014936;28;21128;-79
2021/05/10 12:09:40;;;;;;;3.72;1.08;;;27.30;79.40;;;;;;5026902;28;20154;-77
2021/05/10 12:12:24;;;;;;;4.03;1.20;;;27.20;78.90;;;;;;5031665;28;20047;-77
2021/05/10 12:14:54;;;;;;;3.13;1.33;;;27.30;78.30;;;;;;5030693;28;20590;-78
2021/05/10 12:17:24;;;;;;;3.17;1.30;;;27.50;78.50;;;;;;5028053;28;20080;-78
2021/05/10 12:20:01;;;;;;;4.05;1.33;;;27.80;78.00;;;;;;5016269;28;20060;-78
2021/05/10 12:22:36;;;;;;;2.33;1.20;;;27.80;78.30;;;;;;5020904;28;20100;-78
2021/05/10 12:25:18;;;;;;;3.22;1.05;;;27.90;78.40;;;;;;5034064;28;20583;-78
2021/05/10 12:27:49;;;;;;;3.25;1.85;;;28.10;78.00;;;;;;5027322;28;20037;-78
2021/05/10 12:30:24;;;;;;;4.25;1.20;;;28.20;77.80;;;;;;5021409;28;20063;-78
2021/05/10 12:32:56;;;;;;;2.38;0.98;;;28.10;77.00;;;;;;5033806;28;20052;-78
2021/05/10 12:35:27;;;;;;;1.80;1.05;;;28.10;76.70;;;;;;5057032;28;20059;-78
2021/05/10 12:37:57;;;;;;;2.67;1.30;;;28.30;76.70;;;;;;5098868;27;20669;-78
2021/05/10 12:40:28;;;;;;;2.13;1.20;;;28.30;77.00;;;;;;5100623;28;20054;-78
2021/05/10 12:43:04;;;;;;;2.35;1.00;;;28.30;76.50;;;;;;5098792;28;20063;-76
2021/05/10 12:45:32;;;;;;;;;;;28.50;76.50;;;;;;5103724;27;20141;-76
2021/05/10 12:48:11;;;;;;;2.25;0.93;;;28.50;75.50;;;;;;5097416;27;19932;-77
2021/05/10 12:50:40;;;;;;;3.13;0.90;;;28.60;74.80;;;;;;5101403;27;20446;-76
2021/05/10 12:53:10;;;;;;;1.67;0.68;;;28.70;72.40;;;;;;5097912;27;20040;-76
2021/05/10 12:55:40;;;;;;;2.08;0.80;;;28.60;70.50;;;;;;5104664;27;20042;-76
2021/05/10 12:58:18;;;;;;;2.65;0.85;;;28.90;71.90;;;;;;5103187;27;20131;-76
2021/05/10 13:00:46;;;;;;;3.97;1.10;;;29.00;71.20;;;;;;5100918;28;20054;-76
2021/05/10 13:03:28;;;;;;;2.58;1.00;;;28.90;71.50;;;;;;5102167;27;20032;-77
2021/05/10 13:05:57;;;;;;;2.80;0.80;;;28.90;72.10;;;;;;5095097;28;20439;-76
2021/05/10 13:08:48;;;;;;;3.30;0.80;;;28.90;72.00;;;;;;5096104;27;20412;-76
2021/05/10 13:11:18;;;;;;;3.05;0.80;;;29.10;71.70;;;;;;5100074;28;20138;-76
2021/05/10 13:13:51;;;;;;;3.83;0.80;;;29.30;71.10;;;;;;5117049;27;20044;-76